sensor_id;sensor_type;location;lat;lon;timestamp;pressure;altitude;pressure_sealevel;temperature;humidity
26531;BME280;14201;43.188;24.160;2022-12-29T00:01:29;100737.16;;;4.89;77.97
26531;BME280;14201;43.188;24.160;2022-12-29T00:03:55;100734.81;;;4.92;78.76
26531;BME280;14201;43.188;24.160;2022-12-29T00:06:20;100735.31;;;4.98;78.58
26531;BME280;14201;43.188;24.160;2022-12-29T00:08:46;100745.41;;;4.95;78.34
26531;BME280;14201;43.188;24.160;2022-12-29T00:11:12;100739.59;;;4.98;78.77
26531;BME280;14201;43.188;24.160;2022-12-29T00:13:38;100736.78;;;4.95;79.18
26531;BME280;14201;43.188;24.160;2022-12-29T00:16:22;100739.22;;;4.93;77.54
26531;BME280;14201;43.188;24.160;2022-12-29T00:18:47;100735.44;;;5.00;77.01
26531;BME280;14201;43.188;24.160;2022-12-29T00:21:14;100745.44;;;4.85;77.16
26531;BME280;14201;43.188;24.160;2022-12-29T00:23:58;100750.72;;;4.76;76.73
26531;BME280;14201;43.188;24.160;2022-12-29T00:26:42;100741.28;;;4.77;76.84
26531;BME280;14201;43.188;24.160;2022-12-29T00:29:26;100740.78;;;4.70;77.60
26531;BME280;14201;43.188;24.160;2022-12-29T00:32:10;100732.41;;;4.63;77.89
26531;BME280;14201;43.188;24.160;2022-12-29T00:34:53;100739.88;;;4.70;78.27
26531;BME280;14201;43.188;24.160;2022-12-29T00:37:40;100741.81;;;4.72;77.83
26531;BME280;14201;43.188;24.160;2022-12-29T00:40:25;100739.88;;;4.70;79.45
26531;BME280;14201;43.188;24.160;2022-12-29T00:43:09;100741.28;;;4.77;79.26
26531;BME280;14201;43.188;24.160;2022-12-29T00:45:53;100743.97;;;4.88;78.93
26531;BME280;14201;43.188;24.160;2022-12-29T00:48:18;100735.31;;;4.98;78.24
26531;BME280;14201;43.188;24.160;2022-12-29T00:51:04;100739.97;;;4.92;78.80
26531;BME280;14201;43.188;24.160;2022-12-29T00:53:29;100737.16;;;4.89;78.52
26531;BME280;14201;43.188;24.160;2022-12-29T00:55:55;100733.16;;;4.82;79.51
26531;BME280;14201;43.188;24.160;2022-12-29T00:58:20;100737.00;;;4.98;78.61
26531;BME280;14201;43.188;24.160;2022-12-29T01:00:45;100732.22;;;4.92;78.67
26531;BME280;14201;43.188;24.160;2022-12-29T01:03:11;100727.06;;;5.02;78.34
26531;BME280;14201;43.188;24.160;2022-12-29T01:05:36;100723.97;;;4.96;77.97
26531;BME280;14201;43.188;24.160;2022-12-29T01:08:02;100723.19;;;4.97;77.79
26531;BME280;14201;43.188;24.160;2022-12-29T01:10:27;100714.97;;;4.91;78.66
26531;BME280;14201;43.188;24.160;2022-12-29T01:12:53;100726.56;;;4.86;78.79
26531;BME280;14201;43.188;24.160;2022-12-29T01:15:18;100717.03;;;4.85;78.41
26531;BME280;14201;43.188;24.160;2022-12-29T01:17:44;100713.41;;;4.93;77.53
26531;BME280;14201;43.188;24.160;2022-12-29T01:20:09;100716.66;;;4.90;77.81
26531;BME280;14201;43.188;24.160;2022-12-29T01:22:36;100699.59;;;4.82;77.81
26531;BME280;14201;43.188;24.160;2022-12-29T01:25:02;100705.69;;;4.83;77.34
26531;BME280;14201;43.188;24.160;2022-12-29T01:27:27;100705.41;;;4.90;77.13
26531;BME280;14201;43.188;24.160;2022-12-29T01:29:52;100705.44;;;4.80;77.39
26531;BME280;14201;43.188;24.160;2022-12-29T01:32:18;100705.44;;;4.80;77.52
26531;BME280;14201;43.188;24.160;2022-12-29T01:34:43;100708.28;;;4.83;76.01
26531;BME280;14201;43.188;24.160;2022-12-29T01:37:09;100702.59;;;4.87;75.55
26531;BME280;14201;43.188;24.160;2022-12-29T01:39:34;100697.31;;;4.75;75.81
26531;BME280;14201;43.188;24.160;2022-12-29T01:41:59;100690.72;;;4.68;76.39
26531;BME280;14201;43.188;24.160;2022-12-29T01:47:08;100689.06;;;4.59;76.00
26531;BME280;14201;43.188;24.160;2022-12-29T01:49:34;100676.03;;;4.57;76.18
26531;BME280;14201;43.188;24.160;2022-12-29T01:52:01;100669.63;;;4.52;76.05
26531;BME280;14201;43.188;24.160;2022-12-29T01:54:33;100672.94;;;4.51;76.37
26531;BME280;14201;43.188;24.160;2022-12-29T01:57:01;100664.72;;;4.45;76.09
26531;BME280;14201;43.188;24.160;2022-12-29T01:59:29;100661.88;;;4.31;76.44
26531;BME280;14201;43.188;24.160;2022-12-29T02:01:56;100672.72;;;4.17;76.29
26531;BME280;14201;43.188;24.160;2022-12-29T02:04:22;100658.00;;;4.16;76.31
26531;BME280;14201;43.188;24.160;2022-12-29T02:06:53;100661.88;;;4.11;76.73
26531;BME280;14201;43.188;24.160;2022-12-29T02:09:19;100655.81;;;4.10;77.40
26531;BME280;14201;43.188;24.160;2022-12-29T02:11:45;100654.66;;;4.07;77.70
26531;BME280;14201;43.188;24.160;2022-12-29T02:14:12;100650.28;;;4.06;77.74
26531;BME280;14201;43.188;24.160;2022-12-29T02:22:09;100643.03;;;3.91;75.43
26531;BME280;14201;43.188;24.160;2022-12-29T02:32:25;100640.47;;;3.81;77.14
26531;BME280;14201;43.188;24.160;2022-12-29T02:40:28;100644.53;;;3.59;75.82
26531;BME280;14201;43.188;24.160;2022-12-29T02:43:03;100629.97;;;3.49;76.75
26531;BME280;14201;43.188;24.160;2022-12-29T02:45:36;100630.91;;;3.49;77.70
26531;BME280;14201;43.188;24.160;2022-12-29T02:50:33;100623.84;;;3.57;76.64
26531;BME280;14201;43.188;24.160;2022-12-29T02:53:02;100628.84;;;3.45;77.55
26531;BME280;14201;43.188;24.160;2022-12-29T02:55:29;100622.16;;;3.47;77.37
26531;BME280;14201;43.188;24.160;2022-12-29T03:00:40;100619.69;;;3.49;77.01
26531;BME280;14201;43.188;24.160;2022-12-29T03:05:51;100621.13;;;3.45;74.71
26531;BME280;14201;43.188;24.160;2022-12-29T03:10:53;100623.91;;;3.38;76.34
26531;BME280;14201;43.188;24.160;2022-12-29T03:16:07;100616.06;;;3.37;77.35
26531;BME280;14201;43.188;24.160;2022-12-29T03:21:09;100615.16;;;3.26;75.28
26531;BME280;14201;43.188;24.160;2022-12-29T03:23:36;100626.91;;;3.13;76.10
26531;BME280;14201;43.188;24.160;2022-12-29T03:26:03;100624.34;;;3.13;76.84
26531;BME280;14201;43.188;24.160;2022-12-29T03:28:33;100620.38;;;3.17;77.00
26531;BME280;14201;43.188;24.160;2022-12-29T03:31:00;100619.69;;;3.09;75.11
26531;BME280;14201;43.188;24.160;2022-12-29T03:33:28;100626.34;;;2.97;75.28
26531;BME280;14201;43.188;24.160;2022-12-29T03:35:56;100632.75;;;2.92;76.23
26531;BME280;14201;43.188;24.160;2022-12-29T03:38:39;100632.75;;;2.92;76.58
26531;BME280;14201;43.188;24.160;2022-12-29T03:41:08;100638.25;;;2.86;76.72
26531;BME280;14201;43.188;24.160;2022-12-29T03:43:35;100641.00;;;2.98;76.48
26531;BME280;14201;43.188;24.160;2022-12-29T03:46:00;100643.22;;;3.04;75.76
26531;BME280;14201;43.188;24.160;2022-12-29T03:48:26;100639.22;;;2.97;74.02
26531;BME280;14201;43.188;24.160;2022-12-29T03:50:51;100650.00;;;2.93;75.54
26531;BME280;14201;43.188;24.160;2022-12-29T03:53:16;100645.59;;;2.82;76.28
26531;BME280;14201;43.188;24.160;2022-12-29T03:55:42;100656.91;;;2.84;76.30
26531;BME280;14201;43.188;24.160;2022-12-29T03:58:07;100656.00;;;2.83;77.12
26531;BME280;14201;43.188;24.160;2022-12-29T04:00:32;100645.78;;;2.74;77.70
26531;BME280;14201;43.188;24.160;2022-12-29T04:02:58;100651.06;;;2.76;77.46
26531;BME280;14201;43.188;24.160;2022-12-29T04:05:23;100652.41;;;2.81;76.58
26531;BME280;14201;43.188;24.160;2022-12-29T04:07:49;100652.50;;;2.83;76.37
26531;BME280;14201;43.188;24.160;2022-12-29T04:10:14;100650.28;;;2.77;77.13
26531;BME280;14201;43.188;24.160;2022-12-29T04:12:40;100643.47;;;2.48;75.42
26531;BME280;14201;43.188;24.160;2022-12-29T04:15:07;100661.31;;;2.47;74.68
26531;BME280;14201;43.188;24.160;2022-12-29T04:17:33;100658.31;;;2.42;74.75
26531;BME280;14201;43.188;24.160;2022-12-29T04:19:58;100658.94;;;2.40;74.83
26531;BME280;14201;43.188;24.160;2022-12-29T04:22:43;100658.31;;;2.42;75.64
26531;BME280;14201;43.188;24.160;2022-12-29T04:25:09;100653.81;;;2.40;75.97
26531;BME280;14201;43.188;24.160;2022-12-29T04:27:34;100655.34;;;2.38;76.75
26531;BME280;14201;43.188;24.160;2022-12-29T04:30:00;100651.88;;;2.37;76.63
26531;BME280;14201;43.188;24.160;2022-12-29T04:32:25;100656.03;;;2.45;76.92
26531;BME280;14201;43.188;24.160;2022-12-29T04:34:51;100658.06;;;2.39;75.95
26531;BME280;14201;43.188;24.160;2022-12-29T04:37:16;100654.28;;;2.35;75.09
26531;BME280;14201;43.188;24.160;2022-12-29T04:39:42;100654.28;;;2.35;75.43
26531;BME280;14201;43.188;24.160;2022-12-29T04:42:07;100652.63;;;2.36;74.63
26531;BME280;14201;43.188;24.160;2022-12-29T04:44:33;100645.81;;;2.17;74.97
26531;BME280;14201;43.188;24.160;2022-12-29T04:46:58;100644.63;;;2.14;75.14
26531;BME280;14201;43.188;24.160;2022-12-29T04:49:23;100645.59;;;2.06;74.85
26531;BME280;14201;43.188;24.160;2022-12-29T04:51:49;100654.94;;;2.05;74.52
26531;BME280;14201;43.188;24.160;2022-12-29T04:54:14;100660.16;;;1.96;74.83
26531;BME280;14201;43.188;24.160;2022-12-29T04:56:40;100664.50;;;1.97;74.13
26531;BME280;14201;43.188;24.160;2022-12-29T04:59:05;100661.84;;;1.87;75.08
26531;BME280;14201;43.188;24.160;2022-12-29T05:01:30;100657.75;;;1.89;76.26
26531;BME280;14201;43.188;24.160;2022-12-29T05:03:56;100655.97;;;1.88;76.18
26531;BME280;14201;43.188;24.160;2022-12-29T05:06:21;100661.22;;;1.90;75.69
26531;BME280;14201;43.188;24.160;2022-12-29T05:08:47;100663.13;;;2.01;75.79
26531;BME280;14201;43.188;24.160;2022-12-29T05:11:12;100671.56;;;2.09;75.73
26531;BME280;14201;43.188;24.160;2022-12-29T05:13:37;100679.19;;;1.99;75.95
26531;BME280;14201;43.188;24.160;2022-12-29T05:16:03;100676.78;;;1.91;75.34
26531;BME280;14201;43.188;24.160;2022-12-29T05:18:29;100685.44;;;1.83;75.65
26531;BME280;14201;43.188;24.160;2022-12-29T05:20:54;100695.88;;;1.85;75.82
26531;BME280;14201;43.188;24.160;2022-12-29T05:23:19;100692.69;;;1.87;76.48
26531;BME280;14201;43.188;24.160;2022-12-29T05:25:45;100692.84;;;1.80;76.79
26531;BME280;14201;43.188;24.160;2022-12-29T05:28:10;100690.28;;;1.80;76.85
26531;BME280;14201;43.188;24.160;2022-12-29T05:30:36;100701.88;;;1.94;76.83
26531;BME280;14201;43.188;24.160;2022-12-29T05:33:01;100700.06;;;1.93;77.46
26531;BME280;14201;43.188;24.160;2022-12-29T05:35:27;100702.78;;;1.94;76.98
26531;BME280;14201;43.188;24.160;2022-12-29T05:37:52;100705.19;;;1.93;77.41
26531;BME280;14201;43.188;24.160;2022-12-29T05:40:17;100699.00;;;1.91;76.96
26531;BME280;14201;43.188;24.160;2022-12-29T05:42:43;100701.59;;;1.91;76.94
26531;BME280;14201;43.188;24.160;2022-12-29T05:45:08;100704.91;;;1.90;77.49
26531;BME280;14201;43.188;24.160;2022-12-29T05:47:34;100711.38;;;1.95;78.26
26531;BME280;14201;43.188;24.160;2022-12-29T05:50:00;100711.47;;;1.77;78.78
26531;BME280;14201;43.188;24.160;2022-12-29T05:55:10;100708.88;;;1.86;77.42
26531;BME280;14201;43.188;24.160;2022-12-29T05:57:36;100715.84;;;1.79;76.52
26531;BME280;14201;43.188;24.160;2022-12-29T06:00:02;100722.22;;;1.65;76.80
26531;BME280;14201;43.188;24.160;2022-12-29T06:02:28;100719.06;;;1.58;76.07
26531;BME280;14201;43.188;24.160;2022-12-29T06:04:53;100729.25;;;1.48;76.65
26531;BME280;14201;43.188;24.160;2022-12-29T06:07:19;100727.56;;;1.57;77.35
26531;BME280;14201;43.188;24.160;2022-12-29T06:09:44;100738.88;;;1.60;78.20
26531;BME280;14201;43.188;24.160;2022-12-29T06:12:10;100744.91;;;1.60;79.00
26531;BME280;14201;43.188;24.160;2022-12-29T06:14:35;100738.84;;;1.68;79.98
26531;BME280;14201;43.188;24.160;2022-12-29T06:17:00;100737.13;;;1.86;79.36
26531;BME280;14201;43.188;24.160;2022-12-29T06:19:26;100732.66;;;2.03;78.71
26531;BME280;14201;43.188;24.160;2022-12-29T06:21:51;100736.56;;;2.08;79.29
26531;BME280;14201;43.188;24.160;2022-12-29T06:24:18;100739.84;;;2.15;79.18
26531;BME280;14201;43.188;24.160;2022-12-29T06:26:43;100749.00;;;2.31;77.65
26531;BME280;14201;43.188;24.160;2022-12-29T06:29:09;100745.03;;;2.07;77.69
26531;BME280;14201;43.188;24.160;2022-12-29T06:31:34;100747.75;;;2.08;77.56
26531;BME280;14201;43.188;24.160;2022-12-29T06:34:00;100756.69;;;2.31;76.99
26531;BME280;14201;43.188;24.160;2022-12-29T06:36:25;100750.41;;;2.46;76.16
26531;BME280;14201;43.188;24.160;2022-12-29T06:38:50;100753.56;;;2.44;76.10
26531;BME280;14201;43.188;24.160;2022-12-29T06:41:18;100759.53;;;2.34;75.59
26531;BME280;14201;43.188;24.160;2022-12-29T06:43:43;100752.81;;;2.17;75.59
26531;BME280;14201;43.188;24.160;2022-12-29T06:46:09;100751.19;;;2.09;76.96
26531;BME280;14201;43.188;24.160;2022-12-29T06:48:34;100758.16;;;2.10;77.65
26531;BME280;14201;43.188;24.160;2022-12-29T06:51:00;100756.78;;;2.13;78.29
26531;BME280;14201;43.188;24.160;2022-12-29T06:53:25;100748.28;;;2.23;77.54
26531;BME280;14201;43.188;24.160;2022-12-29T06:55:51;100753.75;;;2.17;78.40
26531;BME280;14201;43.188;24.160;2022-12-29T06:58:16;100762.25;;;2.35;77.51
26531;BME280;14201;43.188;24.160;2022-12-29T07:00:42;100762.09;;;2.34;76.96
26531;BME280;14201;43.188;24.160;2022-12-29T07:03:07;100765.25;;;2.12;76.74
26531;BME280;14201;43.188;24.160;2022-12-29T07:05:32;100766.69;;;2.28;77.06
26531;BME280;14201;43.188;24.160;2022-12-29T07:07:58;100758.78;;;2.35;78.02
26531;BME280;14201;43.188;24.160;2022-12-29T07:10:24;100764.16;;;2.47;77.67
26531;BME280;14201;43.188;24.160;2022-12-29T07:12:49;100764.19;;;2.66;78.10
26531;BME280;14201;43.188;24.160;2022-12-29T07:15:15;100760.03;;;2.95;78.33
26531;BME280;14201;43.188;24.160;2022-12-29T07:17:40;100764.31;;;3.05;78.20
26531;BME280;14201;43.188;24.160;2022-12-29T07:20:06;100766.69;;;3.12;77.97
26531;BME280;14201;43.188;24.160;2022-12-29T07:22:32;100763.47;;;3.34;78.44
26531;BME280;14201;43.188;24.160;2022-12-29T07:24:57;100762.13;;;3.58;78.39
26531;BME280;14201;43.188;24.160;2022-12-29T07:27:22;100755.22;;;3.67;77.48
26531;BME280;14201;43.188;24.160;2022-12-29T07:29:48;100760.47;;;3.88;77.74
26531;BME280;14201;43.188;24.160;2022-12-29T07:32:13;100760.75;;;4.11;77.55
26531;BME280;14201;43.188;24.160;2022-12-29T07:34:39;100754.19;;;4.25;77.13
26531;BME280;14201;43.188;24.160;2022-12-29T07:37:05;100763.25;;;4.30;75.65
26531;BME280;14201;43.188;24.160;2022-12-29T07:39:30;100762.22;;;4.39;75.76
26531;BME280;14201;43.188;24.160;2022-12-29T07:41:55;100762.72;;;4.34;75.67
26531;BME280;14201;43.188;24.160;2022-12-29T07:44:21;100766.47;;;4.48;75.86
26531;BME280;14201;43.188;24.160;2022-12-29T07:46:46;100757.31;;;4.83;76.11
26531;BME280;14201;43.188;24.160;2022-12-29T07:49:12;100762.72;;;4.86;75.88
26531;BME280;14201;43.188;24.160;2022-12-29T07:51:37;100750.53;;;5.05;77.08
26531;BME280;14201;43.188;24.160;2022-12-29T07:54:02;100749.56;;;5.36;74.65
26531;BME280;14201;43.188;24.160;2022-12-29T07:56:28;100750.09;;;5.64;74.45
26531;BME280;14201;43.188;24.160;2022-12-29T07:58:53;100755.72;;;6.02;73.17
26531;BME280;14201;43.188;24.160;2022-12-29T08:01:19;100746.13;;;6.11;74.38
26531;BME280;14201;43.188;24.160;2022-12-29T08:03:44;100742.09;;;6.15;74.26
26531;BME280;14201;43.188;24.160;2022-12-29T08:06:10;100737.19;;;6.30;72.94
26531;BME280;14201;43.188;24.160;2022-12-29T08:08:36;100746.69;;;6.53;72.94
26531;BME280;14201;43.188;24.160;2022-12-29T08:11:01;100744.50;;;6.69;72.02
26531;BME280;14201;43.188;24.160;2022-12-29T08:13:27;100744.53;;;6.81;71.73
26531;BME280;14201;43.188;24.160;2022-12-29T08:15:52;100749.84;;;7.06;71.39
26531;BME280;14201;43.188;24.160;2022-12-29T08:18:18;100737.69;;;7.29;69.71
26531;BME280;14201;43.188;24.160;2022-12-29T08:20:43;100738.31;;;7.74;70.11
26531;BME280;14201;43.188;24.160;2022-12-29T08:23:08;100741.47;;;8.06;69.41
26531;BME280;14201;43.188;24.160;2022-12-29T08:25:34;100739.66;;;8.42;68.47
26531;BME280;14201;43.188;24.160;2022-12-29T08:27:59;100732.06;;;8.71;67.54
26531;BME280;14201;43.188;24.160;2022-12-29T08:30:25;100735.91;;;9.16;66.92
26531;BME280;14201;43.188;24.160;2022-12-29T08:32:50;100737.78;;;9.58;65.00
26531;BME280;14201;43.188;24.160;2022-12-29T08:35:15;100734.34;;;9.73;62.87
26531;BME280;14201;43.188;24.160;2022-12-29T08:37:41;100733.72;;;10.18;62.21
26531;BME280;14201;43.188;24.160;2022-12-29T08:40:07;100728.69;;;10.21;59.31
26531;BME280;14201;43.188;24.160;2022-12-29T08:42:32;100730.34;;;10.06;59.89
26531;BME280;14201;43.188;24.160;2022-12-29T08:44:59;100724.66;;;10.40;60.00
26531;BME280;14201;43.188;24.160;2022-12-29T08:47:24;100729.53;;;10.63;60.06
26531;BME280;14201;43.188;24.160;2022-12-29T08:49:50;100723.25;;;10.90;59.24
26531;BME280;14201;43.188;24.160;2022-12-29T08:52:15;100719.19;;;11.10;58.06
26531;BME280;14201;43.188;24.160;2022-12-29T08:54:41;100715.69;;;10.79;58.57
26531;BME280;14201;43.188;24.160;2022-12-29T08:57:06;100712.97;;;10.48;60.45
26531;BME280;14201;43.188;24.160;2022-12-29T08:59:32;100705.16;;;10.48;60.37
26531;BME280;14201;43.188;24.160;2022-12-29T09:01:57;100705.22;;;10.35;60.91
26531;BME280;14201;43.188;24.160;2022-12-29T09:04:23;100704.16;;;10.03;61.91
26531;BME280;14201;43.188;24.160;2022-12-29T09:06:49;100700.03;;;10.21;62.47
26531;BME280;14201;43.188;24.160;2022-12-29T09:09:14;100699.09;;;10.06;62.89
26531;BME280;14201;43.188;24.160;2022-12-29T09:11:41;100690.53;;;10.35;62.29
26531;BME280;14201;43.188;24.160;2022-12-29T09:14:07;100684.00;;;10.29;61.20
26531;BME280;14201;43.188;24.160;2022-12-29T09:16:33;100684.69;;;10.11;64.14
26531;BME280;14201;43.188;24.160;2022-12-29T09:18:58;100682.78;;;10.81;62.17
26531;BME280;14201;43.188;24.160;2022-12-29T09:21:24;100684.00;;;11.49;61.73
26531;BME280;14201;43.188;24.160;2022-12-29T09:23:49;100688.38;;;11.96;59.80
26531;BME280;14201;43.188;24.160;2022-12-29T09:26:15;100683.28;;;12.49;56.54
26531;BME280;14201;43.188;24.160;2022-12-29T09:28:40;100677.59;;;12.57;55.45
26531;BME280;14201;43.188;24.160;2022-12-29T09:31:06;100664.72;;;12.78;54.89
26531;BME280;14201;43.188;24.160;2022-12-29T09:33:32;100670.19;;;13.19;54.65
26531;BME280;14201;43.188;24.160;2022-12-29T09:36:00;100662.59;;;13.42;52.93
26531;BME280;14201;43.188;24.160;2022-12-29T09:38:26;100660.72;;;13.39;51.53
26531;BME280;14201;43.188;24.160;2022-12-29T09:40:53;100654.72;;;13.79;51.61
26531;BME280;14201;43.188;24.160;2022-12-29T09:46:18;100645.13;;;14.18;51.09
26531;BME280;14201;43.188;24.160;2022-12-29T09:48:41;100640.94;;;14.43;50.20
26531;BME280;14201;43.188;24.160;2022-12-29T09:51:13;100642.78;;;14.46;50.33
26531;BME280;14201;43.188;24.160;2022-12-29T09:53:41;100637.28;;;14.59;47.39
26531;BME280;14201;43.188;24.160;2022-12-29T09:56:16;100636.56;;;14.84;49.22
26531;BME280;14201;43.188;24.160;2022-12-29T09:59:04;100629.66;;;14.86;47.47
26531;BME280;14201;43.188;24.160;2022-12-29T10:04:00;100624.59;;;15.34;47.61
26531;BME280;14201;43.188;24.160;2022-12-29T10:06:39;100626.75;;;15.22;47.06
26531;BME280;14201;43.188;24.160;2022-12-29T10:09:15;100619.69;;;15.21;47.75
26531;BME280;14201;43.188;24.160;2022-12-29T10:22:02;100604.22;;;15.29;46.36
26531;BME280;14201;43.188;24.160;2022-12-29T10:24:32;100601.47;;;15.48;47.49
26531;BME280;14201;43.188;24.160;2022-12-29T10:26:59;100598.41;;;15.60;46.10
26531;BME280;14201;43.188;24.160;2022-12-29T10:29:32;100597.19;;;15.73;46.56
26531;BME280;14201;43.188;24.160;2022-12-29T10:32:00;100596.59;;;15.80;45.12
26531;BME280;14201;43.188;24.160;2022-12-29T10:36:53;100586.38;;;16.13;44.87
26531;BME280;14201;43.188;24.160;2022-12-29T10:39:33;100575.66;;;16.07;44.57
26531;BME280;14201;43.188;24.160;2022-12-29T10:44:30;100584.50;;;15.85;43.29
26531;BME280;14201;43.188;24.160;2022-12-29T10:47:00;100580.56;;;15.98;43.88
26531;BME280;14201;43.188;24.160;2022-12-29T10:49:29;100578.03;;;16.01;44.63
26531;BME280;14201;43.188;24.160;2022-12-29T10:51:57;100575.47;;;16.28;44.41
26531;BME280;14201;43.188;24.160;2022-12-29T10:54:26;100575.00;;;16.14;43.08
26531;BME280;14201;43.188;24.160;2022-12-29T10:59:22;100568.59;;;16.32;44.63
26531;BME280;14201;43.188;24.160;2022-12-29T11:06:57;100543.97;;;16.56;44.83
26531;BME280;14201;43.188;24.160;2022-12-29T11:09:25;100542.16;;;16.27;43.30
26531;BME280;14201;43.188;24.160;2022-12-29T11:11:52;100544.56;;;16.47;43.34
26531;BME280;14201;43.188;24.160;2022-12-29T11:14:19;100548.56;;;16.63;43.51
26531;BME280;14201;43.188;24.160;2022-12-29T11:16:44;100538.59;;;16.52;43.47
26531;BME280;14201;43.188;24.160;2022-12-29T11:19:22;100536.31;;;16.63;43.80
26531;BME280;14201;43.188;24.160;2022-12-29T11:21:48;100539.19;;;16.71;42.71
26531;BME280;14201;43.188;24.160;2022-12-29T11:24:24;100538.00;;;16.87;43.76
26531;BME280;14201;43.188;24.160;2022-12-29T11:26:51;100534.03;;;16.47;42.69
26531;BME280;14201;43.188;24.160;2022-12-29T11:29:22;100532.53;;;15.77;44.10
26531;BME280;14201;43.188;24.160;2022-12-29T11:31:49;100520.88;;;15.94;46.42
26531;BME280;14201;43.188;24.160;2022-12-29T11:34:31;100520.03;;;16.21;45.61
26531;BME280;14201;43.188;24.160;2022-12-29T11:37:36;100525.69;;;16.33;45.39
26531;BME280;14201;43.188;24.160;2022-12-29T11:39:57;100524.84;;;16.34;45.41
26531;BME280;14201;43.188;24.160;2022-12-29T11:42:34;100529.38;;;16.38;45.64
26531;BME280;14201;43.188;24.160;2022-12-29T11:45:03;100517.84;;;16.07;45.22
26531;BME280;14201;43.188;24.160;2022-12-29T11:47:30;100522.28;;;16.10;46.36
26531;BME280;14201;43.188;24.160;2022-12-29T11:49:58;100512.69;;;15.62;45.33
26531;BME280;14201;43.188;24.160;2022-12-29T11:52:24;100520.31;;;15.54;46.12
26531;BME280;14201;43.188;24.160;2022-12-29T11:54:51;100519.06;;;15.45;45.83
26531;BME280;14201;43.188;24.160;2022-12-29T11:57:17;100513.03;;;15.23;46.14
26531;BME280;14201;43.188;24.160;2022-12-29T11:59:54;100505.88;;;15.19;46.42
26531;BME280;14201;43.188;24.160;2022-12-29T12:02:30;100502.59;;;15.02;46.63
26531;BME280;14201;43.188;24.160;2022-12-29T12:05:08;100507.19;;;15.08;47.89
26531;BME280;14201;43.188;24.160;2022-12-29T12:07:39;100507.91;;;15.26;47.51
26531;BME280;14201;43.188;24.160;2022-12-29T12:10:08;100506.78;;;15.44;46.60
26531;BME280;14201;43.188;24.160;2022-12-29T12:12:53;100504.38;;;15.50;46.72
26531;BME280;14201;43.188;24.160;2022-12-29T12:15:33;100507.28;;;15.58;46.87
26531;BME280;14201;43.188;24.160;2022-12-29T12:18:03;100503.50;;;15.73;45.72
26531;BME280;14201;43.188;24.160;2022-12-29T12:21:04;100504.66;;;15.82;46.21
26531;BME280;14201;43.188;24.160;2022-12-29T12:26:04;100504.16;;;15.92;45.47
26531;BME280;14201;43.188;24.160;2022-12-29T12:32:10;100493.53;;;15.89;45.40
26531;BME280;14201;43.188;24.160;2022-12-29T12:34:06;100486.34;;;15.83;45.58
26531;BME280;14201;43.188;24.160;2022-12-29T12:41:33;100489.13;;;15.88;45.67
26531;BME280;14201;43.188;24.160;2022-12-29T12:44:12;100489.97;;;15.87;46.02
26531;BME280;14201;43.188;24.160;2022-12-29T12:57:16;100482.25;;;15.67;46.57
26531;BME280;14201;43.188;24.160;2022-12-29T13:04:48;100486.00;;;15.50;46.83
26531;BME280;14201;43.188;24.160;2022-12-29T13:37:36;100490.53;;;14.83;49.50
26531;BME280;14201;43.188;24.160;2022-12-29T13:40:11;100485.88;;;14.76;49.45
26531;BME280;14201;43.188;24.160;2022-12-29T13:42:39;100490.88;;;14.70;49.89
26531;BME280;14201;43.188;24.160;2022-12-29T13:45:06;100497.84;;;14.69;49.83
26531;BME280;14201;43.188;24.160;2022-12-29T13:47:39;100495.91;;;14.64;49.81
26531;BME280;14201;43.188;24.160;2022-12-29T13:50:20;100499.88;;;14.55;49.43
26531;BME280;14201;43.188;24.160;2022-12-29T13:55:40;100505.34;;;14.39;50.71
26531;BME280;14201;43.188;24.160;2022-12-29T14:00:45;100513.34;;;14.00;51.82
26531;BME280;14201;43.188;24.160;2022-12-29T14:05:41;100525.72;;;13.83;52.16
26531;BME280;14201;43.188;24.160;2022-12-29T14:08:14;100525.19;;;13.71;52.57
26531;BME280;14201;43.188;24.160;2022-12-29T14:10:50;100526.50;;;13.61;52.85
26531;BME280;14201;43.188;24.160;2022-12-29T14:13:23;100532.69;;;13.63;52.86
26531;BME280;14201;43.188;24.160;2022-12-29T14:15:50;100528.69;;;13.52;53.97
26531;BME280;14201;43.188;24.160;2022-12-29T14:18:18;100521.47;;;13.46;53.52
26531;BME280;14201;43.188;24.160;2022-12-29T14:20:50;100527.13;;;13.36;54.48
26531;BME280;14201;43.188;24.160;2022-12-29T14:23:25;100519.31;;;13.37;54.46
26531;BME280;14201;43.188;24.160;2022-12-29T14:28:20;100522.03;;;13.21;55.39
26531;BME280;14201;43.188;24.160;2022-12-29T14:30:51;100530.56;;;13.17;55.47
26531;BME280;14201;43.188;24.160;2022-12-29T14:33:18;100528.41;;;13.08;55.52
26531;BME280;14201;43.188;24.160;2022-12-29T14:35:44;100535.09;;;13.02;55.66
26531;BME280;14201;43.188;24.160;2022-12-29T14:38:18;100533.00;;;12.94;55.43
26531;BME280;14201;43.188;24.160;2022-12-29T14:40:45;100525.56;;;12.84;55.40
26531;BME280;14201;43.188;24.160;2022-12-29T14:43:17;100523.72;;;12.82;55.03
26531;BME280;14201;43.188;24.160;2022-12-29T14:45:43;100534.81;;;12.77;55.11
26531;BME280;14201;43.188;24.160;2022-12-29T14:51:00;100536.00;;;12.48;56.10
26531;BME280;14201;43.188;24.160;2022-12-29T14:56:10;100538.50;;;12.27;56.59
26531;BME280;14201;43.188;24.160;2022-12-29T14:58:43;100534.34;;;12.14;56.66
26531;BME280;14201;43.188;24.160;2022-12-29T15:01:25;100528.19;;;11.96;57.37
26531;BME280;14201;43.188;24.160;2022-12-29T15:03:55;100541.06;;;11.76;57.81
26531;BME280;14201;43.188;24.160;2022-12-29T15:06:22;100536.03;;;11.63;58.33
26531;BME280;14201;43.188;24.160;2022-12-29T15:13:41;100531.47;;;11.10;58.90
26531;BME280;14201;43.188;24.160;2022-12-29T15:18:52;100536.16;;;10.84;59.96